sensor_id;sensor_type;location;lat;lon;timestamp;P1;durP1;ratioP1;P2;durP2;ratioP2
68543;SDS011;55534;52.222;5.156;2023-06-14T00:01:18;4.95;;;2.25;;
68543;SDS011;55534;52.222;5.156;2023-06-14T00:03:45;5.32;;;1.95;;
68543;SDS011;55534;52.222;5.156;2023-06-14T00:06:12;8.48;;;1.98;;
68543;SDS011;55534;52.222;5.156;2023-06-14T00:08:38;6.85;;;2.50;;
68543;SDS011;55534;52.222;5.156;2023-06-14T00:11:05;9.23;;;2.08;;
68543;SDS011;55534;52.222;5.156;2023-06-14T00:13:30;4.07;;;2.28;;
68543;SDS011;55534;52.222;5.156;2023-06-14T00:15:55;5.45;;;1.73;;
68543;SDS011;55534;52.222;5.156;2023-06-14T00:18:21;7.90;;;2.90;;
68543;SDS011;55534;52.222;5.156;2023-06-14T00:20:49;4.80;;;2.60;;
68543;SDS011;55534;52.222;5.156;2023-06-14T00:23:14;5.38;;;1.92;;
68543;SDS011;55534;52.222;5.156;2023-06-14T00:25:40;7.80;;;2.22;;
68543;SDS011;55534;52.222;5.156;2023-06-14T00:28:05;5.13;;;2.03;;
68543;SDS011;55534;52.222;5.156;2023-06-14T00:30:30;6.90;;;2.00;;
68543;SDS011;55534;52.222;5.156;2023-06-14T00:32:56;5.85;;;2.25;;
68543;SDS011;55534;52.222;5.156;2023-06-14T00:35:24;4.03;;;1.98;;
68543;SDS011;55534;52.222;5.156;2023-06-14T00:37:50;6.97;;;2.50;;
68543;SDS011;55534;52.222;5.156;2023-06-14T00:40:15;4.03;;;2.17;;
68543;SDS011;55534;52.222;5.156;2023-06-14T00:42:41;8.70;;;2.38;;
68543;SDS011;55534;52.222;5.156;2023-06-14T00:45:21;8.32;;;2.65;;
68543;SDS011;55534;52.222;5.156;2023-06-14T00:47:46;5.55;;;2.50;;
68543;SDS011;55534;52.222;5.156;2023-06-14T00:50:12;3.60;;;1.75;;
68543;SDS011;55534;52.222;5.156;2023-06-14T00:52:38;3.85;;;1.60;;
68543;SDS011;55534;52.222;5.156;2023-06-14T00:55:05;6.07;;;2.00;;
68543;SDS011;55534;52.222;5.156;2023-06-14T00:57:31;6.05;;;2.40;;
68543;SDS011;55534;52.222;5.156;2023-06-14T01:00:02;4.53;;;1.58;;
68543;SDS011;55534;52.222;5.156;2023-06-14T01:02:32;6.20;;;1.70;;
68543;SDS011;55534;52.222;5.156;2023-06-14T01:04:57;5.25;;;1.88;;
68543;SDS011;55534;52.222;5.156;2023-06-14T01:15:27;7.57;;;1.80;;
68543;SDS011;55534;52.222;5.156;2023-06-14T01:17:55;8.20;;;2.00;;
68543;SDS011;55534;52.222;5.156;2023-06-14T01:20:28;5.03;;;1.95;;
68543;SDS011;55534;52.222;5.156;2023-06-14T01:22:56;5.50;;;2.25;;
68543;SDS011;55534;52.222;5.156;2023-06-14T01:25:22;5.55;;;1.60;;
68543;SDS011;55534;52.222;5.156;2023-06-14T01:27:49;8.73;;;1.83;;
68543;SDS011;55534;52.222;5.156;2023-06-14T01:30:18;3.22;;;1.88;;
68543;SDS011;55534;52.222;5.156;2023-06-14T01:32:46;4.65;;;2.22;;
68543;SDS011;55534;52.222;5.156;2023-06-14T01:35:12;9.13;;;2.22;;
68543;SDS011;55534;52.222;5.156;2023-06-14T01:37:39;3.88;;;1.92;;
68543;SDS011;55534;52.222;5.156;2023-06-14T01:40:07;5.97;;;1.75;;
68543;SDS011;55534;52.222;5.156;2023-06-14T01:42:34;4.97;;;2.10;;
68543;SDS011;55534;52.222;5.156;2023-06-14T01:45:02;6.03;;;1.83;;
68543;SDS011;55534;52.222;5.156;2023-06-14T01:47:30;5.13;;;2.08;;
68543;SDS011;55534;52.222;5.156;2023-06-14T01:49:57;7.75;;;2.10;;
68543;SDS011;55534;52.222;5.156;2023-06-14T01:52:22;4.43;;;2.05;;
68543;SDS011;55534;52.222;5.156;2023-06-14T01:54:49;5.38;;;1.88;;
68543;SDS011;55534;52.222;5.156;2023-06-14T01:57:15;6.78;;;1.92;;
68543;SDS011;55534;52.222;5.156;2023-06-14T01:59:41;5.45;;;2.08;;
68543;SDS011;55534;52.222;5.156;2023-06-14T02:02:07;4.75;;;1.67;;
68543;SDS011;55534;52.222;5.156;2023-06-14T02:04:33;6.25;;;2.03;;
68543;SDS011;55534;52.222;5.156;2023-06-14T02:06:59;7.75;;;2.55;;
68543;SDS011;55534;52.222;5.156;2023-06-14T02:09:25;7.25;;;2.25;;
68543;SDS011;55534;52.222;5.156;2023-06-14T02:11:53;6.88;;;1.60;;
68543;SDS011;55534;52.222;5.156;2023-06-14T02:14:19;5.07;;;1.42;;
68543;SDS011;55534;52.222;5.156;2023-06-14T02:16:44;4.28;;;1.75;;
68543;SDS011;55534;52.222;5.156;2023-06-14T02:19:17;4.03;;;1.92;;
68543;SDS011;55534;52.222;5.156;2023-06-14T02:21:43;4.68;;;2.40;;
68543;SDS011;55534;52.222;5.156;2023-06-14T02:24:11;7.00;;;1.83;;
68543;SDS011;55534;52.222;5.156;2023-06-14T02:26:37;6.00;;;1.73;;
68543;SDS011;55534;52.222;5.156;2023-06-14T02:29:04;4.80;;;1.90;;
68543;SDS011;55534;52.222;5.156;2023-06-14T02:31:31;6.38;;;1.75;;
68543;SDS011;55534;52.222;5.156;2023-06-14T02:33:57;4.55;;;2.10;;
68543;SDS011;55534;52.222;5.156;2023-06-14T02:36:23;6.03;;;1.70;;
68543;SDS011;55534;52.222;5.156;2023-06-14T02:38:48;6.30;;;1.60;;
68543;SDS011;55534;52.222;5.156;2023-06-14T02:41:13;3.75;;;1.55;;
68543;SDS011;55534;52.222;5.156;2023-06-14T02:43:39;7.97;;;2.42;;
68543;SDS011;55534;52.222;5.156;2023-06-14T02:46:05;6.10;;;1.90;;
68543;SDS011;55534;52.222;5.156;2023-06-14T02:48:31;2.08;;;1.58;;
68543;SDS011;55534;52.222;5.156;2023-06-14T02:50:56;5.85;;;1.70;;
68543;SDS011;55534;52.222;5.156;2023-06-14T02:53:22;4.80;;;1.85;;
68543;SDS011;55534;52.222;5.156;2023-06-14T02:55:47;14.77;;;3.13;;
68543;SDS011;55534;52.222;5.156;2023-06-14T02:58:14;4.85;;;2.47;;
68543;SDS011;55534;52.222;5.156;2023-06-14T03:00:39;3.38;;;1.90;;
68543;SDS011;55534;52.222;5.156;2023-06-14T03:03:06;3.15;;;1.77;;
68543;SDS011;55534;52.222;5.156;2023-06-14T03:05:41;5.00;;;1.40;;
68543;SDS011;55534;52.222;5.156;2023-06-14T03:08:16;4.15;;;1.50;;
68543;SDS011;55534;52.222;5.156;2023-06-14T03:10:45;7.00;;;1.50;;
68543;SDS011;55534;52.222;5.156;2023-06-14T03:13:12;5.43;;;1.45;;
68543;SDS011;55534;52.222;5.156;2023-06-14T03:15:39;9.55;;;2.65;;
68543;SDS011;55534;52.222;5.156;2023-06-14T03:18:09;4.43;;;1.50;;
68543;SDS011;55534;52.222;5.156;2023-06-14T03:20:37;8.90;;;2.15;;
68543;SDS011;55534;52.222;5.156;2023-06-14T03:23:05;5.05;;;1.75;;
68543;SDS011;55534;52.222;5.156;2023-06-14T03:25:32;6.63;;;1.65;;
68543;SDS011;55534;52.222;5.156;2023-06-14T03:28:01;5.35;;;1.58;;
68543;SDS011;55534;52.222;5.156;2023-06-14T03:30:29;6.22;;;2.03;;
68543;SDS011;55534;52.222;5.156;2023-06-14T03:32:55;7.80;;;1.58;;
68543;SDS011;55534;52.222;5.156;2023-06-14T03:35:22;4.90;;;1.70;;
68543;SDS011;55534;52.222;5.156;2023-06-14T03:37:48;5.55;;;1.55;;
68543;SDS011;55534;52.222;5.156;2023-06-14T03:40:15;7.72;;;1.60;;
68543;SDS011;55534;52.222;5.156;2023-06-14T03:42:46;5.53;;;1.70;;
68543;SDS011;55534;52.222;5.156;2023-06-14T03:45:12;3.50;;;1.70;;
68543;SDS011;55534;52.222;5.156;2023-06-14T03:47:37;8.60;;;1.70;;
68543;SDS011;55534;52.222;5.156;2023-06-14T03:50:03;8.43;;;1.77;;
68543;SDS011;55534;52.222;5.156;2023-06-14T03:52:29;3.05;;;1.40;;
68543;SDS011;55534;52.222;5.156;2023-06-14T03:54:54;5.28;;;1.48;;
68543;SDS011;55534;52.222;5.156;2023-06-14T03:57:21;6.20;;;1.70;;
68543;SDS011;55534;52.222;5.156;2023-06-14T03:59:49;4.60;;;1.58;;
68543;SDS011;55534;52.222;5.156;2023-06-14T04:02:15;4.97;;;1.77;;
68543;SDS011;55534;52.222;5.156;2023-06-14T04:04:42;6.28;;;1.95;;
68543;SDS011;55534;52.222;5.156;2023-06-14T04:07:11;3.58;;;1.75;;
68543;SDS011;55534;52.222;5.156;2023-06-14T04:09:38;5.72;;;2.08;;
68543;SDS011;55534;52.222;5.156;2023-06-14T04:12:04;6.25;;;1.95;;
68543;SDS011;55534;52.222;5.156;2023-06-14T04:14:31;5.85;;;2.10;;
68543;SDS011;55534;52.222;5.156;2023-06-14T04:17:00;6.55;;;1.77;;
68543;SDS011;55534;52.222;5.156;2023-06-14T04:19:26;6.70;;;1.52;;
68543;SDS011;55534;52.222;5.156;2023-06-14T04:21:52;3.90;;;2.00;;
68543;SDS011;55534;52.222;5.156;2023-06-14T04:24:17;6.25;;;1.55;;
68543;SDS011;55534;52.222;5.156;2023-06-14T04:26:46;4.68;;;1.45;;
68543;SDS011;55534;52.222;5.156;2023-06-14T04:29:14;3.45;;;1.40;;
68543;SDS011;55534;52.222;5.156;2023-06-14T04:31:42;4.95;;;1.73;;
68543;SDS011;55534;52.222;5.156;2023-06-14T04:34:10;7.68;;;2.25;;
68543;SDS011;55534;52.222;5.156;2023-06-14T04:36:43;8.10;;;1.58;;
68543;SDS011;55534;52.222;5.156;2023-06-14T04:39:21;6.47;;;1.80;;
68543;SDS011;55534;52.222;5.156;2023-06-14T04:41:47;4.53;;;1.98;;
68543;SDS011;55534;52.222;5.156;2023-06-14T04:44:16;6.57;;;1.92;;
68543;SDS011;55534;52.222;5.156;2023-06-14T04:46:45;5.45;;;1.85;;
68543;SDS011;55534;52.222;5.156;2023-06-14T04:49:15;5.57;;;1.73;;
68543;SDS011;55534;52.222;5.156;2023-06-14T04:51:42;4.38;;;1.80;;
68543;SDS011;55534;52.222;5.156;2023-06-14T04:54:10;5.68;;;1.55;;
68543;SDS011;55534;52.222;5.156;2023-06-14T04:56:39;4.07;;;1.98;;
68543;SDS011;55534;52.222;5.156;2023-06-14T04:59:05;4.68;;;1.77;;
68543;SDS011;55534;52.222;5.156;2023-06-14T05:01:31;4.28;;;1.65;;
68543;SDS011;55534;52.222;5.156;2023-06-14T05:03:57;3.25;;;2.00;;
68543;SDS011;55534;52.222;5.156;2023-06-14T05:06:23;6.15;;;2.05;;
68543;SDS011;55534;52.222;5.156;2023-06-14T05:08:49;4.75;;;1.50;;
68543;SDS011;55534;52.222;5.156;2023-06-14T05:11:14;5.97;;;1.40;;
68543;SDS011;55534;52.222;5.156;2023-06-14T05:13:43;5.07;;;1.83;;
68543;SDS011;55534;52.222;5.156;2023-06-14T05:16:11;4.20;;;2.35;;
68543;SDS011;55534;52.222;5.156;2023-06-14T05:18:37;5.40;;;1.80;;
68543;SDS011;55534;52.222;5.156;2023-06-14T05:21:03;7.40;;;1.83;;
68543;SDS011;55534;52.222;5.156;2023-06-14T05:23:30;3.17;;;1.50;;
68543;SDS011;55534;52.222;5.156;2023-06-14T05:25:56;4.35;;;1.70;;
68543;SDS011;55534;52.222;5.156;2023-06-14T05:28:22;5.13;;;1.98;;
68543;SDS011;55534;52.222;5.156;2023-06-14T05:30:47;2.60;;;1.50;;
68543;SDS011;55534;52.222;5.156;2023-06-14T05:33:13;3.45;;;1.40;;
68543;SDS011;55534;52.222;5.156;2023-06-14T05:35:38;7.22;;;1.75;;
68543;SDS011;55534;52.222;5.156;2023-06-14T05:38:04;6.28;;;1.45;;
68543;SDS011;55534;52.222;5.156;2023-06-14T05:40:29;10.93;;;2.45;;
68543;SDS011;55534;52.222;5.156;2023-06-14T05:42:55;5.00;;;1.73;;
68543;SDS011;55534;52.222;5.156;2023-06-14T05:45:20;3.78;;;1.33;;
68543;SDS011;55534;52.222;5.156;2023-06-14T05:47:45;5.95;;;2.22;;
68543;SDS011;55534;52.222;5.156;2023-06-14T05:50:11;4.38;;;1.85;;
68543;SDS011;55534;52.222;5.156;2023-06-14T05:52:36;5.25;;;1.60;;
68543;SDS011;55534;52.222;5.156;2023-06-14T05:55:02;4.65;;;1.88;;
68543;SDS011;55534;52.222;5.156;2023-06-14T05:57:28;5.28;;;1.65;;
68543;SDS011;55534;52.222;5.156;2023-06-14T05:59:54;8.85;;;1.85;;
68543;SDS011;55534;52.222;5.156;2023-06-14T06:02:19;6.18;;;1.83;;
68543;SDS011;55534;52.222;5.156;2023-06-14T06:04:45;4.90;;;1.92;;
68543;SDS011;55534;52.222;5.156;2023-06-14T06:07:10;9.98;;;2.03;;
68543;SDS011;55534;52.222;5.156;2023-06-14T06:09:36;4.72;;;2.40;;
68543;SDS011;55534;52.222;5.156;2023-06-14T06:12:01;5.43;;;1.67;;
68543;SDS011;55534;52.222;5.156;2023-06-14T06:14:26;7.32;;;2.20;;
68543;SDS011;55534;52.222;5.156;2023-06-14T06:16:53;15.02;;;2.30;;
68543;SDS011;55534;52.222;5.156;2023-06-14T06:19:19;6.20;;;3.65;;
68543;SDS011;55534;52.222;5.156;2023-06-14T06:21:45;14.18;;;3.65;;
68543;SDS011;55534;52.222;5.156;2023-06-14T06:24:10;8.30;;;2.40;;
68543;SDS011;55534;52.222;5.156;2023-06-14T06:26:36;7.57;;;2.13;;
68543;SDS011;55534;52.222;5.156;2023-06-14T06:29:01;2.78;;;1.80;;
68543;SDS011;55534;52.222;5.156;2023-06-14T06:31:26;5.45;;;1.98;;
68543;SDS011;55534;52.222;5.156;2023-06-14T06:33:52;4.10;;;1.75;;
68543;SDS011;55534;52.222;5.156;2023-06-14T06:36:19;5.22;;;2.10;;
68543;SDS011;55534;52.222;5.156;2023-06-14T06:38:45;5.50;;;2.13;;
68543;SDS011;55534;52.222;5.156;2023-06-14T06:41:10;5.00;;;2.30;;
68543;SDS011;55534;52.222;5.156;2023-06-14T06:43:36;3.38;;;1.83;;
68543;SDS011;55534;52.222;5.156;2023-06-14T06:46:01;4.82;;;1.85;;
68543;SDS011;55534;52.222;5.156;2023-06-14T06:48:27;5.78;;;2.53;;
68543;SDS011;55534;52.222;5.156;2023-06-14T06:50:52;9.88;;;1.80;;
68543;SDS011;55534;52.222;5.156;2023-06-14T06:53:18;4.07;;;2.15;;
68543;SDS011;55534;52.222;5.156;2023-06-14T06:55:44;4.82;;;1.92;;
68543;SDS011;55534;52.222;5.156;2023-06-14T06:58:09;4.28;;;2.15;;
68543;SDS011;55534;52.222;5.156;2023-06-14T07:00:35;10.00;;;2.97;;
68543;SDS011;55534;52.222;5.156;2023-06-14T07:03:01;7.57;;;2.10;;
68543;SDS011;55534;52.222;5.156;2023-06-14T07:05:26;6.13;;;1.95;;
68543;SDS011;55534;52.222;5.156;2023-06-14T07:07:51;7.97;;;1.88;;
68543;SDS011;55534;52.222;5.156;2023-06-14T07:10:17;3.83;;;1.60;;
68543;SDS011;55534;52.222;5.156;2023-06-14T07:12:43;8.65;;;2.20;;
68543;SDS011;55534;52.222;5.156;2023-06-14T07:15:09;6.00;;;1.63;;
68543;SDS011;55534;52.222;5.156;2023-06-14T07:17:35;3.58;;;1.63;;
68543;SDS011;55534;52.222;5.156;2023-06-14T07:20:04;6.20;;;1.63;;
68543;SDS011;55534;52.222;5.156;2023-06-14T07:22:39;16.70;;;2.05;;
68543;SDS011;55534;52.222;5.156;2023-06-14T07:25:08;2.15;;;1.67;;
68543;SDS011;55534;52.222;5.156;2023-06-14T07:27:37;3.90;;;1.60;;
68543;SDS011;55534;52.222;5.156;2023-06-14T07:30:02;3.65;;;2.03;;
68543;SDS011;55534;52.222;5.156;2023-06-14T07:32:28;6.90;;;2.10;;
68543;SDS011;55534;52.222;5.156;2023-06-14T07:34:53;4.63;;;2.00;;
68543;SDS011;55534;52.222;5.156;2023-06-14T07:37:19;3.90;;;1.63;;
68543;SDS011;55534;52.222;5.156;2023-06-14T07:39:44;5.60;;;1.92;;
68543;SDS011;55534;52.222;5.156;2023-06-14T07:42:10;3.78;;;1.92;;
68543;SDS011;55534;52.222;5.156;2023-06-14T07:44:35;7.15;;;1.70;;
68543;SDS011;55534;52.222;5.156;2023-06-14T07:47:01;3.50;;;1.50;;
68543;SDS011;55534;52.222;5.156;2023-06-14T07:49:26;4.75;;;1.80;;
68543;SDS011;55534;52.222;5.156;2023-06-14T07:51:52;8.85;;;2.15;;
68543;SDS011;55534;52.222;5.156;2023-06-14T07:54:19;4.38;;;1.58;;
68543;SDS011;55534;52.222;5.156;2023-06-14T07:56:44;3.97;;;1.25;;
68543;SDS011;55534;52.222;5.156;2023-06-14T07:59:10;6.13;;;1.50;;
68543;SDS011;55534;52.222;5.156;2023-06-14T08:01:35;3.83;;;1.30;;
68543;SDS011;55534;52.222;5.156;2023-06-14T08:04:01;3.42;;;1.45;;
68543;SDS011;55534;52.222;5.156;2023-06-14T08:06:26;2.10;;;1.40;;
68543;SDS011;55534;52.222;5.156;2023-06-14T08:08:52;2.47;;;1.40;;
68543;SDS011;55534;52.222;5.156;2023-06-14T08:11:17;3.00;;;1.60;;
68543;SDS011;55534;52.222;5.156;2023-06-14T08:13:43;4.28;;;1.25;;
68543;SDS011;55534;52.222;5.156;2023-06-14T08:16:08;4.88;;;1.63;;
68543;SDS011;55534;52.222;5.156;2023-06-14T08:18:34;2.50;;;1.50;;
68543;SDS011;55534;52.222;5.156;2023-06-14T08:20:59;9.57;;;1.65;;
68543;SDS011;55534;52.222;5.156;2023-06-14T08:23:25;5.95;;;1.38;;
68543;SDS011;55534;52.222;5.156;2023-06-14T08:25:50;3.55;;;1.15;;
68543;SDS011;55534;52.222;5.156;2023-06-14T08:28:16;4.70;;;1.38;;
68543;SDS011;55534;52.222;5.156;2023-06-14T08:30:42;4.90;;;1.20;;
68543;SDS011;55534;52.222;5.156;2023-06-14T08:33:07;2.28;;;1.30;;
68543;SDS011;55534;52.222;5.156;2023-06-14T08:35:33;2.47;;;1.17;;
68543;SDS011;55534;52.222;5.156;2023-06-14T08:38:02;2.72;;;0.82;;
68543;SDS011;55534;52.222;5.156;2023-06-14T08:40:27;1.23;;;0.95;;
68543;SDS011;55534;52.222;5.156;2023-06-14T08:42:55;3.42;;;1.10;;
68543;SDS011;55534;52.222;5.156;2023-06-14T08:45:21;4.65;;;1.45;;
68543;SDS011;55534;52.222;5.156;2023-06-14T08:47:47;2.10;;;1.05;;
68543;SDS011;55534;52.222;5.156;2023-06-14T08:50:23;3.53;;;1.33;;
68543;SDS011;55534;52.222;5.156;2023-06-14T08:55:18;5.53;;;1.20;;
68543;SDS011;55534;52.222;5.156;2023-06-14T08:57:45;5.15;;;1.30;;
68543;SDS011;55534;52.222;5.156;2023-06-14T09:00:12;5.80;;;1.52;;
68543;SDS011;55534;52.222;5.156;2023-06-14T09:02:39;1.80;;;0.95;;
68543;SDS011;55534;52.222;5.156;2023-06-14T09:05:08;1.83;;;0.95;;
68543;SDS011;55534;52.222;5.156;2023-06-14T09:07:39;3.30;;;1.05;;
68543;SDS011;55534;52.222;5.156;2023-06-14T09:10:07;2.15;;;0.90;;
68543;SDS011;55534;52.222;5.156;2023-06-14T09:12:36;6.30;;;1.10;;
68543;SDS011;55534;52.222;5.156;2023-06-14T09:15:03;3.92;;;1.10;;
68543;SDS011;55534;52.222;5.156;2023-06-14T09:17:37;5.35;;;1.23;;
68543;SDS011;55534;52.222;5.156;2023-06-14T09:20:04;2.22;;;0.93;;
68543;SDS011;55534;52.222;5.156;2023-06-14T09:22:42;5.22;;;1.10;;
68543;SDS011;55534;52.222;5.156;2023-06-14T09:25:08;5.47;;;1.20;;
68543;SDS011;55534;52.222;5.156;2023-06-14T09:27:33;4.88;;;1.10;;
68543;SDS011;55534;52.222;5.156;2023-06-14T09:29:59;2.47;;;0.82;;
68543;SDS011;55534;52.222;5.156;2023-06-14T09:32:24;3.30;;;1.10;;
68543;SDS011;55534;52.222;5.156;2023-06-14T09:34:50;4.20;;;1.38;;
68543;SDS011;55534;52.222;5.156;2023-06-14T09:37:28;4.82;;;0.95;;
68543;SDS011;55534;52.222;5.156;2023-06-14T09:39:54;1.95;;;1.00;;
68543;SDS011;55534;52.222;5.156;2023-06-14T09:42:20;3.05;;;0.80;;
68543;SDS011;55534;52.222;5.156;2023-06-14T09:44:49;2.78;;;1.00;;
68543;SDS011;55534;52.222;5.156;2023-06-14T09:47:18;1.75;;;1.00;;
68543;SDS011;55534;52.222;5.156;2023-06-14T09:49:44;4.20;;;0.80;;
68543;SDS011;55534;52.222;5.156;2023-06-14T09:52:10;1.15;;;0.80;;
68543;SDS011;55534;52.222;5.156;2023-06-14T09:54:40;2.40;;;0.95;;
68543;SDS011;55534;52.222;5.156;2023-06-14T09:57:11;2.10;;;0.98;;
68543;SDS011;55534;52.222;5.156;2023-06-14T09:59:39;1.20;;;0.85;;
68543;SDS011;55534;52.222;5.156;2023-06-14T10:02:10;3.95;;;1.63;;
68543;SDS011;55534;52.222;5.156;2023-06-14T10:05:07;2.78;;;1.02;;
68543;SDS011;55534;52.222;5.156;2023-06-14T10:10:22;3.33;;;1.00;;
68543;SDS011;55534;52.222;5.156;2023-06-14T10:12:48;4.10;;;1.20;;
68543;SDS011;55534;52.222;5.156;2023-06-14T10:15:20;2.67;;;0.80;;
68543;SDS011;55534;52.222;5.156;2023-06-14T10:17:57;3.85;;;1.65;;
68543;SDS011;55534;52.222;5.156;2023-06-14T10:20:30;4.40;;;1.00;;
68543;SDS011;55534;52.222;5.156;2023-06-14T10:23:22;4.07;;;1.25;;
68543;SDS011;55534;52.222;5.156;2023-06-14T10:25:49;3.55;;;0.90;;
68543;SDS011;55534;52.222;5.156;2023-06-14T10:33:30;4.18;;;1.30;;
68543;SDS011;55534;52.222;5.156;2023-06-14T10:38:36;2.28;;;0.90;;
68543;SDS011;55534;52.222;5.156;2023-06-14T10:41:03;3.70;;;0.75;;
68543;SDS011;55534;52.222;5.156;2023-06-14T10:43:29;2.67;;;0.82;;
68543;SDS011;55534;52.222;5.156;2023-06-14T10:48:44;4.57;;;1.10;;
68543;SDS011;55534;52.222;5.156;2023-06-14T10:51:17;4.45;;;1.27;;
68543;SDS011;55534;52.222;5.156;2023-06-14T10:53:49;2.63;;;1.15;;
68543;SDS011;55534;52.222;5.156;2023-06-14T10:56:26;1.83;;;0.98;;
68543;SDS011;55534;52.222;5.156;2023-06-14T10:58:56;1.33;;;0.65;;
68543;SDS011;55534;52.222;5.156;2023-06-14T11:01:25;2.63;;;1.00;;
68543;SDS011;55534;52.222;5.156;2023-06-14T11:04:00;2.10;;;0.85;;
68543;SDS011;55534;52.222;5.156;2023-06-14T11:06:37;3.42;;;0.90;;
68543;SDS011;55534;52.222;5.156;2023-06-14T11:11:48;3.33;;;1.00;;
68543;SDS011;55534;52.222;5.156;2023-06-14T11:14:16;4.70;;;1.15;;
68543;SDS011;55534;52.222;5.156;2023-06-14T11:16:47;2.00;;;1.10;;
68543;SDS011;55534;52.222;5.156;2023-06-14T11:19:13;3.13;;;1.17;;
68543;SDS011;55534;52.222;5.156;2023-06-14T11:21:39;3.08;;;1.08;;
68543;SDS011;55534;52.222;5.156;2023-06-14T11:24:09;1.25;;;0.70;;
68543;SDS011;55534;52.222;5.156;2023-06-14T11:26:37;4.47;;;1.10;;
68543;SDS011;55534;52.222;5.156;2023-06-14T11:29:03;2.95;;;0.88;;
68543;SDS011;55534;52.222;5.156;2023-06-14T11:31:28;3.80;;;1.10;;
68543;SDS011;55534;52.222;5.156;2023-06-14T11:33:55;1.98;;;0.80;;
68543;SDS011;55534;52.222;5.156;2023-06-14T11:36:22;2.53;;;0.80;;
68543;SDS011;55534;52.222;5.156;2023-06-14T11:38:57;4.13;;;0.80;;
68543;SDS011;55534;52.222;5.156;2023-06-14T11:41:24;6.97;;;0.93;;
68543;SDS011;55534;52.222;5.156;2023-06-14T11:43:52;2.33;;;0.93;;
68543;SDS011;55534;52.222;5.156;2023-06-14T11:46:18;2.30;;;0.90;;
68543;SDS011;55534;52.222;5.156;2023-06-14T11:48:48;3.55;;;0.80;;
68543;SDS011;55534;52.222;5.156;2023-06-14T11:51:14;2.30;;;0.80;;
68543;SDS011;55534;52.222;5.156;2023-06-14T11:53:40;1.58;;;0.70;;
68543;SDS011;55534;52.222;5.156;2023-06-14T11:56:08;2.63;;;0.90;;
68543;SDS011;55534;52.222;5.156;2023-06-14T11:58:33;3.22;;;0.95;;
68543;SDS011;55534;52.222;5.156;2023-06-14T12:00:59;1.58;;;0.82;;
68543;SDS011;55534;52.222;5.156;2023-06-14T12:03:24;2.28;;;0.88;;
68543;SDS011;55534;52.222;5.156;2023-06-14T12:06:01;2.75;;;0.60;;
68543;SDS011;55534;52.222;5.156;2023-06-14T12:08:35;2.00;;;0.80;;
68543;SDS011;55534;52.222;5.156;2023-06-14T12:11:14;3.53;;;0.70;;
68543;SDS011;55534;52.222;5.156;2023-06-14T12:13:40;8.00;;;1.38;;
68543;SDS011;55534;52.222;5.156;2023-06-14T12:16:07;4.60;;;0.80;;
68543;SDS011;55534;52.222;5.156;2023-06-14T12:18:37;2.55;;;0.90;;
68543;SDS011;55534;52.222;5.156;2023-06-14T12:21:05;3.53;;;0.90;;
68543;SDS011;55534;52.222;5.156;2023-06-14T12:23:47;4.43;;;1.05;;
68543;SDS011;55534;52.222;5.156;2023-06-14T12:26:15;3.28;;;0.80;;
68543;SDS011;55534;52.222;5.156;2023-06-14T12:28:42;1.92;;;0.75;;
68543;SDS011;55534;52.222;5.156;2023-06-14T12:31:08;4.85;;;1.33;;
68543;SDS011;55534;52.222;5.156;2023-06-14T12:33:34;6.25;;;1.08;;
68543;SDS011;55534;52.222;5.156;2023-06-14T12:35:59;4.38;;;1.02;;
68543;SDS011;55534;52.222;5.156;2023-06-14T12:38:25;3.80;;;0.98;;
68543;SDS011;55534;52.222;5.156;2023-06-14T12:40:50;4.53;;;0.70;;
68543;SDS011;55534;52.222;5.156;2023-06-14T12:43:16;3.10;;;1.00;;
68543;SDS011;55534;52.222;5.156;2023-06-14T12:45:41;2.88;;;1.10;;
68543;SDS011;55534;52.222;5.156;2023-06-14T12:48:06;4.57;;;0.80;;
68543;SDS011;55534;52.222;5.156;2023-06-14T12:50:34;2.28;;;0.90;;
68543;SDS011;55534;52.222;5.156;2023-06-14T12:52:59;1.80;;;0.90;;
68543;SDS011;55534;52.222;5.156;2023-06-14T12:55:24;4.30;;;0.80;;
68543;SDS011;55534;52.222;5.156;2023-06-14T12:57:50;3.78;;;0.75;;
68543;SDS011;55534;52.222;5.156;2023-06-14T13:00:16;3.35;;;0.70;;
68543;SDS011;55534;52.222;5.156;2023-06-14T13:02:42;2.38;;;0.85;;
68543;SDS011;55534;52.222;5.156;2023-06-14T13:05:08;1.95;;;1.10;;
68543;SDS011;55534;52.222;5.156;2023-06-14T13:07:34;3.30;;;0.75;;
68543;SDS011;55534;52.222;5.156;2023-06-14T13:10:00;4.22;;;0.98;;
68543;SDS011;55534;52.222;5.156;2023-06-14T13:12:25;1.98;;;0.93;;
68543;SDS011;55534;52.222;5.156;2023-06-14T13:14:50;4.25;;;0.95;;
68543;SDS011;55534;52.222;5.156;2023-06-14T13:17:16;2.60;;;0.95;;
68543;SDS011;55534;52.222;5.156;2023-06-14T13:19:41;4.80;;;0.88;;
68543;SDS011;55534;52.222;5.156;2023-06-14T13:22:12;2.10;;;0.82;;
68543;SDS011;55534;52.222;5.156;2023-06-14T13:24:43;2.45;;;1.10;;
68543;SDS011;55534;52.222;5.156;2023-06-14T13:27:08;3.47;;;0.70;;
68543;SDS011;55534;52.222;5.156;2023-06-14T13:29:34;4.70;;;1.00;;
68543;SDS011;55534;52.222;5.156;2023-06-14T13:32:01;4.47;;;1.13;;
68543;SDS011;55534;52.222;5.156;2023-06-14T13:34:29;4.93;;;1.02;;
68543;SDS011;55534;52.222;5.156;2023-06-14T13:36:55;3.67;;;1.00;;
68543;SDS011;55534;52.222;5.156;2023-06-14T13:39:20;2.67;;;1.00;;
68543;SDS011;55534;52.222;5.156;2023-06-14T13:41:46;1.77;;;0.82;;
68543;SDS011;55534;52.222;5.156;2023-06-14T13:44:11;1.75;;;0.80;;
68543;SDS011;55534;52.222;5.156;2023-06-14T13:46:39;1.98;;;1.00;;
68543;SDS011;55534;52.222;5.156;2023-06-14T13:49:04;1.52;;;0.60;;
68543;SDS011;55534;52.222;5.156;2023-06-14T13:51:33;4.10;;;1.08;;
68543;SDS011;55534;52.222;5.156;2023-06-14T13:54:00;1.58;;;1.05;;
68543;SDS011;55534;52.222;5.156;2023-06-14T13:56:26;3.28;;;0.85;;
68543;SDS011;55534;52.222;5.156;2023-06-14T13:58:51;2.33;;;1.23;;
68543;SDS011;55534;52.222;5.156;2023-06-14T14:01:17;3.13;;;0.90;;
68543;SDS011;55534;52.222;5.156;2023-06-14T14:03:44;1.30;;;0.80;;
68543;SDS011;55534;52.222;5.156;2023-06-14T14:06:11;5.63;;;1.20;;
68543;SDS011;55534;52.222;5.156;2023-06-14T14:08:37;2.15;;;0.80;;
68543;SDS011;55534;52.222;5.156;2023-06-14T14:11:02;2.60;;;1.08;;
68543;SDS011;55534;52.222;5.156;2023-06-14T14:13:28;2.83;;;0.93;;
68543;SDS011;55534;52.222;5.156;2023-06-14T14:15:54;2.08;;;1.10;;
68543;SDS011;55534;52.222;5.156;2023-06-14T14:18:22;2.50;;;1.00;;
68543;SDS011;55534;52.222;5.156;2023-06-14T14:20:48;2.13;;;1.05;;
68543;SDS011;55534;52.222;5.156;2023-06-14T14:23:13;4.82;;;1.10;;
68543;SDS011;55534;52.222;5.156;2023-06-14T14:25:39;2.92;;;1.10;;
68543;SDS011;55534;52.222;5.156;2023-06-14T14:28:04;2.95;;;1.63;;
68543;SDS011;55534;52.222;5.156;2023-06-14T14:30:30;3.63;;;0.90;;
68543;SDS011;55534;52.222;5.156;2023-06-14T14:32:59;1.45;;;0.82;;
68543;SDS011;55534;52.222;5.156;2023-06-14T14:35:25;6.28;;;0.90;;
68543;SDS011;55534;52.222;5.156;2023-06-14T14:37:58;1.58;;;0.80;;
68543;SDS011;55534;52.222;5.156;2023-06-14T14:40:28;1.70;;;0.70;;
68543;SDS011;55534;52.222;5.156;2023-06-14T14:42:54;3.15;;;0.93;;
68543;SDS011;55534;52.222;5.156;2023-06-14T14:45:19;4.13;;;1.05;;
68543;SDS011;55534;52.222;5.156;2023-06-14T14:47:44;4.38;;;1.35;;
68543;SDS011;55534;52.222;5.156;2023-06-14T14:50:10;3.92;;;0.80;;
68543;SDS011;55534;52.222;5.156;2023-06-14T14:52:35;2.60;;;0.77;;
68543;SDS011;55534;52.222;5.156;2023-06-14T14:55:01;1.98;;;0.82;;
68543;SDS011;55534;52.222;5.156;2023-06-14T14:57:27;1.67;;;0.80;;
68543;SDS011;55534;52.222;5.156;2023-06-14T14:59:52;4.03;;;1.23;;
68543;SDS011;55534;52.222;5.156;2023-06-14T15:02:18;1.92;;;0.85;;
68543;SDS011;55534;52.222;5.156;2023-06-14T15:04:44;1.92;;;0.70;;
68543;SDS011;55534;52.222;5.156;2023-06-14T15:07:10;3.30;;;0.70;;
68543;SDS011;55534;52.222;5.156;2023-06-14T15:09:35;4.28;;;0.63;;
68543;SDS011;55534;52.222;5.156;2023-06-14T15:12:01;1.85;;;0.90;;
68543;SDS011;55534;52.222;5.156;2023-06-14T15:14:27;2.47;;;0.80;;